createdAt,value
2022-08-17T00:01:05.160Z,50.07
2022-08-17T00:03:42.241Z,50.39
2022-08-17T00:06:15.332Z,49.80
2022-08-17T00:11:32.511Z,50.37
2022-08-17T00:16:56.218Z,50.19
2022-08-17T00:19:31.859Z,50.28
2022-08-17T00:22:34.933Z,50.50
2022-08-17T00:25:08.071Z,50.41
2022-08-17T00:27:45.577Z,50.48
2022-08-17T00:30:15.577Z,50.06
2022-08-17T00:46:33.299Z,49.90
2022-08-17T00:54:33.373Z,49.99
2022-08-17T00:57:13.965Z,49.98
2022-08-17T00:59:51.116Z,50.10
2022-08-17T01:02:41.561Z,49.83
2022-08-17T01:05:18.630Z,50.49
2022-08-17T01:13:12.691Z,50.56
2022-08-17T01:15:50.521Z,50.95
2022-08-17T01:18:20.204Z,50.40
2022-08-17T01:20:54.249Z,50.65
2022-08-17T01:23:30.876Z,50.40
2022-08-17T01:26:05.365Z,50.34
2022-08-17T01:28:53.965Z,50.29
2022-08-17T01:34:11.904Z,51.29
2022-08-17T01:36:44.460Z,51.19
2022-08-17T01:39:22.773Z,51.03
2022-08-17T01:41:54.564Z,50.88
2022-08-17T01:44:26.052Z,50.99
2022-08-17T01:46:57.882Z,51.03
2022-08-17T01:49:29.396Z,51.20
2022-08-17T01:52:01.756Z,51.40
2022-08-17T01:54:32.462Z,51.24
2022-08-17T01:57:01.416Z,51.60
2022-08-17T01:59:30.588Z,51.15
2022-08-17T02:01:59.474Z,51.62
2022-08-17T02:04:27.814Z,51.44
2022-08-17T02:07:04.681Z,51.54
2022-08-17T02:12:39.362Z,51.76
2022-08-17T02:15:04.425Z,51.70
2022-08-17T02:20:12.875Z,51.87
2022-08-17T02:22:57.744Z,51.53
2022-08-17T02:25:37.538Z,51.91
2022-08-17T02:28:13.465Z,51.95
2022-08-17T02:31:02.254Z,51.88
2022-08-17T02:33:41.693Z,52.00
2022-08-17T02:36:14.829Z,52.13
2022-08-17T02:38:54.029Z,51.90
2022-08-17T02:47:15.680Z,52.43
2022-08-17T02:55:05.061Z,52.26
2022-08-17T02:57:44.833Z,52.45
2022-08-17T03:00:30.113Z,51.94
2022-08-17T03:03:01.071Z,51.87
2022-08-17T03:05:32.327Z,51.42
2022-08-17T03:08:02.682Z,51.15
2022-08-17T03:10:31.331Z,51.40
2022-08-17T03:12:59.754Z,51.02
2022-08-17T03:15:35.020Z,50.56
2022-08-17T03:18:04.485Z,50.45
2022-08-17T03:20:37.093Z,50.49
2022-08-17T03:23:07.248Z,50.38
2022-08-17T03:28:23.014Z,50.04
2022-08-17T03:31:10.051Z,50.09
2022-08-17T03:36:53.646Z,49.19
2022-08-17T03:39:41.594Z,49.04
2022-08-17T03:42:37.756Z,49.25
2022-08-17T03:51:20.296Z,48.39
2022-08-17T03:54:15.964Z,48.05
2022-08-17T03:57:02.846Z,48.07
2022-08-17T03:59:34.013Z,47.62
2022-08-17T04:02:05.273Z,47.32
2022-08-17T04:09:51.796Z,46.85
2022-08-17T04:12:22.894Z,46.12
2022-08-17T04:14:53.401Z,45.98
2022-08-17T04:17:23.452Z,45.67
2022-08-17T04:19:51.844Z,45.37
2022-08-17T04:22:32.918Z,45.30
2022-08-17T04:25:08.324Z,44.94
2022-08-17T04:27:39.294Z,44.60
2022-08-17T04:30:09.649Z,44.23
2022-08-17T04:32:58.505Z,43.55
2022-08-17T04:36:03.668Z,43.45
2022-08-17T04:38:34.283Z,42.96
2022-08-17T04:41:22.363Z,42.68
2022-08-17T04:43:55.448Z,42.57
2022-08-17T04:46:24.571Z,42.30
2022-08-17T04:50:02.787Z,42.49
2022-08-17T04:52:43.223Z,42.29
2022-08-17T04:55:11.937Z,41.54
2022-08-17T04:57:44.519Z,41.29
2022-08-17T05:00:13.917Z,41.28
2022-08-17T05:02:49.921Z,41.06
2022-08-17T05:05:21.595Z,40.59
2022-08-17T05:07:50.011Z,40.40
2022-08-17T05:10:18.432Z,40.73
2022-08-17T05:12:46.792Z,40.46
2022-08-17T05:15:16.786Z,40.33
2022-08-17T05:17:48.388Z,40.29
2022-08-17T05:20:16.785Z,40.05
2022-08-17T05:22:51.533Z,39.92
2022-08-17T05:25:25.598Z,39.75
2022-08-17T05:27:55.349Z,39.51
2022-08-17T05:30:25.268Z,39.32
2022-08-17T05:32:55.434Z,38.60
2022-08-17T05:35:24.732Z,38.66
2022-08-17T05:38:00.808Z,38.60
2022-08-17T05:40:34.129Z,38.72
2022-08-17T05:43:06.613Z,38.58
2022-08-17T05:45:46.120Z,38.73
2022-08-17T05:48:35.522Z,38.60
2022-08-17T05:51:22.951Z,38.49
2022-08-17T05:53:58.217Z,38.45
2022-08-17T05:56:35.673Z,38.74
2022-08-17T05:59:06.927Z,38.58
2022-08-17T06:01:42.719Z,38.75
2022-08-17T06:04:28.626Z,38.61
2022-08-17T06:07:00.094Z,38.57
2022-08-17T06:13:15.858Z,38.46
2022-08-17T06:15:59.995Z,38.26
2022-08-17T06:18:40.785Z,38.00
2022-08-17T06:24:23.720Z,37.66
2022-08-17T06:26:53.983Z,37.32
2022-08-17T06:29:49.800Z,36.63
2022-08-17T06:35:31.888Z,36.56
2022-08-17T07:18:54.848Z,34.45
2022-08-17T07:25:10.005Z,33.67
2022-08-17T07:27:52.553Z,33.69
2022-08-17T07:30:23.723Z,33.50
2022-08-17T07:32:54.070Z,33.29
2022-08-17T07:41:12.191Z,32.63
2022-08-17T07:43:49.737Z,32.33
2022-08-17T07:46:38.151Z,32.61
2022-08-17T07:49:35.819Z,32.30
2022-08-17T07:52:47.456Z,32.61
2022-08-17T07:54:58.835Z,31.90
2022-08-17T07:57:37.150Z,32.23
2022-08-17T08:00:11.328Z,31.88
2022-08-17T08:02:46.753Z,31.51
2022-08-17T08:05:30.836Z,31.50
2022-08-17T08:08:23.097Z,31.40
2022-08-17T08:10:59.776Z,30.95
2022-08-17T08:13:29.483Z,30.80
2022-08-17T08:16:13.422Z,30.60
2022-08-17T08:18:55.842Z,30.63
2022-08-17T08:21:30.403Z,30.53
2022-08-17T08:24:18.143Z,30.48
2022-08-17T08:26:55.598Z,30.28
2022-08-17T08:29:29.871Z,30.21
2022-08-17T08:32:01.090Z,30.26
2022-08-17T08:34:47.392Z,29.94
2022-08-17T08:37:33.715Z,29.77
2022-08-17T08:40:12.261Z,29.81
2022-08-17T08:42:47.729Z,29.54
2022-08-17T08:45:21.878Z,29.40
2022-08-17T08:48:05.691Z,29.24
2022-08-17T08:50:43.451Z,29.13
2022-08-17T08:53:19.150Z,29.45
2022-08-17T08:55:54.253Z,29.20
2022-08-17T08:58:41.366Z,28.78
2022-08-17T09:01:18.293Z,28.94
2022-08-17T09:04:23.437Z,28.84
2022-08-17T09:06:59.969Z,28.67
2022-08-17T09:09:31.926Z,28.11
2022-08-17T09:12:07.116Z,28.05
2022-08-17T09:14:47.152Z,28.14
2022-08-17T09:17:19.755Z,27.69
2022-08-17T09:20:01.599Z,28.10
2022-08-17T09:22:34.302Z,27.77
2022-08-17T09:25:09.102Z,28.09
2022-08-17T09:27:48.422Z,28.09
2022-08-17T09:30:18.750Z,28.52
2022-08-17T09:32:52.585Z,27.86
2022-08-17T09:35:24.066Z,27.97
2022-08-17T09:37:57.787Z,27.76
2022-08-17T09:40:28.218Z,27.20
2022-08-17T09:43:02.719Z,27.72
2022-08-17T09:45:33.578Z,27.34
2022-08-17T09:48:05.244Z,27.25
2022-08-17T09:50:55.291Z,27.18
2022-08-17T09:53:33.310Z,27.51
2022-08-17T09:56:10.776Z,27.71
2022-08-17T09:58:48.845Z,27.62
2022-08-17T10:01:21.491Z,27.26
2022-08-17T10:03:59.505Z,27.21
2022-08-17T10:06:34.142Z,26.83
2022-08-17T10:09:08.593Z,26.88
2022-08-17T10:11:57.539Z,26.62
2022-08-17T10:14:36.692Z,25.59
2022-08-17T10:17:17.375Z,24.89
2022-08-17T10:19:51.184Z,24.35
2022-08-17T10:22:39.751Z,23.78
2022-08-17T10:25:48.543Z,22.86
2022-08-17T10:28:24.705Z,21.60
2022-08-17T10:33:56.184Z,19.92
2022-08-17T10:36:28.726Z,18.73
2022-08-17T10:39:04.733Z,17.34
2022-08-17T10:41:40.304Z,18.53
2022-08-17T10:44:37.015Z,17.84
2022-08-17T10:47:07.587Z,17.98
2022-08-17T10:49:45.451Z,17.47
2022-08-17T10:52:32.208Z,16.94
2022-08-17T10:55:16.793Z,16.48
2022-08-17T10:57:46.129Z,15.82
2022-08-17T11:00:16.506Z,14.96
2022-08-17T11:02:51.421Z,14.83
2022-08-17T11:05:29.319Z,14.33
2022-08-17T11:08:05.549Z,13.83
2022-08-17T11:10:52.241Z,13.95
2022-08-17T11:13:29.818Z,13.58
2022-08-17T11:16:08.980Z,13.35
2022-08-17T11:18:47.962Z,13.25
2022-08-17T11:21:30.444Z,12.78
2022-08-17T11:24:12.166Z,12.94
2022-08-17T11:26:46.322Z,13.19
2022-08-17T11:29:19.901Z,13.12
2022-08-17T11:32:03.842Z,13.02
2022-08-17T11:34:34.883Z,12.38
2022-08-17T11:37:13.159Z,12.50
2022-08-17T11:39:53.403Z,12.28
2022-08-17T11:42:29.599Z,12.44
2022-08-17T11:44:59.299Z,12.36
2022-08-17T11:48:23.860Z,11.85
2022-08-17T11:51:07.468Z,11.69
2022-08-17T11:54:31.832Z,11.78
2022-08-17T11:56:57.034Z,11.39
2022-08-17T11:59:44.085Z,11.08
2022-08-17T12:02:44.417Z,11.08
2022-08-17T12:05:34.284Z,10.67
2022-08-17T12:08:18.864Z,10.48
2022-08-17T12:10:53.645Z,10.32
2022-08-17T12:13:23.852Z,11.30
2022-08-17T12:15:59.487Z,10.47
2022-08-17T12:18:29.771Z,10.33
2022-08-17T12:21:15.738Z,10.68
2022-08-17T12:23:53.639Z,10.40
2022-08-17T12:26:23.475Z,10.05
2022-08-17T12:28:53.988Z,9.98
2022-08-17T12:31:24.810Z,10.73
2022-08-17T12:33:53.400Z,10.63
2022-08-17T12:36:24.714Z,10.11
2022-08-17T12:39:14.877Z,10.78
2022-08-17T12:41:50.819Z,10.51
2022-08-17T12:44:20.589Z,10.91
2022-08-17T12:46:51.459Z,11.25
2022-08-17T12:49:26.622Z,10.97
2022-08-17T12:51:58.504Z,11.01
2022-08-17T12:54:34.081Z,10.78
2022-08-17T12:57:05.629Z,10.38
2022-08-17T12:59:34.566Z,10.87
2022-08-17T13:02:02.886Z,10.86
2022-08-17T13:04:32.871Z,10.69
2022-08-17T13:07:01.398Z,11.25
2022-08-17T13:09:40.269Z,10.66
2022-08-17T13:12:11.435Z,10.67
2022-08-17T13:14:39.637Z,10.33
2022-08-17T13:17:12.844Z,9.59
2022-08-17T13:19:49.843Z,9.25
2022-08-17T13:22:19.824Z,9.36
2022-08-17T13:24:53.208Z,9.52
2022-08-17T13:27:23.789Z,9.03
2022-08-17T13:29:53.844Z,9.52
2022-08-17T13:32:33.553Z,9.59
2022-08-17T13:35:14.863Z,8.93
2022-08-17T13:37:57.983Z,8.84
2022-08-17T13:40:34.197Z,9.10
2022-08-17T13:43:04.508Z,8.69
2022-08-17T13:45:42.285Z,8.67
2022-08-17T13:48:14.841Z,9.53
2022-08-17T13:50:45.214Z,8.90
2022-08-17T13:53:17.770Z,8.74
2022-08-17T13:55:49.338Z,9.37
2022-08-17T13:58:24.082Z,9.37
2022-08-17T14:00:53.303Z,9.57
2022-08-17T14:03:22.183Z,9.75
2022-08-17T14:05:51.417Z,9.29
2022-08-17T14:08:21.819Z,9.69
2022-08-17T14:10:58.606Z,9.66
2022-08-17T14:13:29.057Z,9.76
2022-08-17T14:15:57.607Z,9.00
2022-08-17T14:18:55.228Z,9.09
2022-08-17T14:21:14.537Z,9.50
2022-08-17T14:23:49.979Z,9.21
2022-08-17T14:26:24.030Z,9.57
2022-08-17T14:28:54.482Z,9.24
2022-08-17T14:31:25.186Z,9.92
2022-08-17T14:33:53.497Z,9.57
2022-08-17T14:36:21.592Z,10.24
2022-08-17T14:38:49.693Z,10.33
2022-08-17T14:41:22.065Z,10.02
2022-08-17T14:43:50.813Z,10.34
2022-08-17T14:46:20.649Z,10.61
2022-08-17T14:48:52.721Z,10.93
2022-08-17T14:51:23.915Z,10.61
2022-08-17T14:53:52.291Z,10.49
2022-08-17T14:56:20.414Z,10.71
2022-08-17T14:58:49.407Z,10.69
2022-08-17T15:01:17.850Z,10.76
2022-08-17T15:03:47.848Z,10.98
2022-08-17T15:06:16.490Z,10.77
2022-08-17T15:08:44.739Z,10.68
2022-08-17T15:11:15.138Z,11.09
2022-08-17T15:13:52.875Z,11.15
2022-08-17T15:16:21.735Z,10.99
2022-08-17T15:18:52.842Z,10.99
2022-08-17T15:21:21.255Z,11.02
2022-08-17T15:23:49.357Z,11.28
2022-08-17T15:26:20.661Z,11.50
2022-08-17T15:28:54.346Z,11.60
2022-08-17T15:31:31.916Z,11.91
2022-08-17T15:34:02.336Z,12.20
2022-08-17T15:36:30.695Z,11.90
2022-08-17T15:38:59.220Z,13.31
2022-08-17T15:41:28.715Z,14.38
2022-08-17T15:43:57.684Z,15.05
2022-08-17T15:46:45.877Z,15.60
2022-08-17T15:49:16.224Z,16.72
2022-08-17T15:51:45.066Z,16.56
2022-08-17T15:54:22.544Z,17.37
2022-08-17T15:56:51.585Z,17.78
2022-08-17T15:59:21.849Z,18.56
2022-08-17T16:03:15.877Z,19.74
2022-08-17T16:04:44.364Z,20.14
2022-08-17T16:07:15.925Z,20.17
2022-08-17T16:12:21.154Z,21.20
2022-08-17T16:14:50.792Z,20.58
2022-08-17T16:17:40.204Z,20.64
2022-08-17T16:20:19.507Z,20.10
2022-08-17T16:22:50.201Z,20.50
2022-08-17T16:25:21.616Z,20.14
2022-08-17T16:27:53.858Z,20.05
2022-08-17T16:30:23.716Z,20.72
2022-08-17T16:32:53.342Z,20.50
2022-08-17T16:35:28.360Z,21.68
2022-08-17T16:38:00.894Z,21.63
2022-08-17T16:40:35.729Z,21.64
2022-08-17T16:43:07.784Z,21.89
2022-08-17T16:45:38.036Z,21.84
2022-08-17T16:48:06.518Z,22.58
2022-08-17T16:50:37.594Z,22.91
2022-08-17T16:53:11.512Z,23.43
2022-08-17T16:55:40.254Z,23.29
2022-08-17T16:58:11.234Z,24.18
2022-08-17T17:00:40.353Z,24.59
2022-08-17T17:03:19.409Z,24.88
2022-08-17T17:06:06.554Z,24.95
2022-08-17T17:08:45.995Z,25.20
2022-08-17T17:11:15.728Z,25.05
2022-08-17T17:13:47.434Z,25.37
2022-08-17T17:16:19.347Z,25.63
2022-08-17T17:18:56.426Z,25.80
2022-08-17T17:21:31.501Z,26.13
2022-08-17T17:24:04.202Z,26.21
2022-08-17T17:26:43.495Z,26.33
2022-08-17T17:29:28.528Z,27.11
2022-08-17T17:32:21.350Z,27.44
2022-08-17T17:37:43.227Z,27.68
2022-08-17T17:40:16.906Z,27.90
2022-08-17T17:42:45.348Z,28.43
2022-08-17T17:45:23.434Z,28.12
2022-08-17T17:47:52.623Z,28.20
2022-08-17T17:50:23.707Z,28.40
2022-08-17T17:53:00.149Z,28.71
2022-08-17T17:55:36.683Z,29.19
2022-08-17T17:58:10.452Z,28.87
2022-08-17T18:00:40.936Z,28.75
2022-08-17T18:03:15.452Z,29.01
2022-08-17T18:05:50.251Z,28.70
2022-08-17T18:08:32.333Z,29.53
2022-08-17T18:11:11.217Z,29.71
2022-08-17T18:13:44.105Z,30.37
2022-08-17T18:16:16.486Z,30.01
2022-08-17T18:18:50.599Z,30.39
2022-08-17T18:21:21.744Z,30.47
2022-08-17T18:23:53.682Z,30.31
2022-08-17T18:26:37.870Z,30.16
2022-08-17T18:29:14.588Z,30.28
2022-08-17T18:31:43.207Z,30.39
2022-08-17T18:37:16.152Z,30.79
2022-08-17T18:39:49.668Z,31.13
2022-08-17T18:42:26.021Z,31.41
2022-08-17T18:44:55.595Z,31.14
2022-08-17T18:47:26.671Z,31.38
2022-08-17T18:49:57.953Z,31.59
2022-08-17T18:52:27.922Z,31.36
2022-08-17T18:55:04.190Z,31.48
2022-08-17T18:57:34.881Z,31.75
2022-08-17T19:00:03.439Z,31.18
2022-08-17T19:02:45.275Z,31.20
2022-08-17T19:05:26.573Z,31.77
2022-08-17T19:07:54.908Z,31.67
2022-08-17T19:10:25.597Z,31.86
2022-08-17T19:13:01.118Z,31.48
2022-08-17T19:15:32.809Z,31.94
2022-08-17T19:18:03.926Z,31.85
2022-08-17T19:20:34.707Z,32.05
2022-08-17T19:23:14.719Z,32.28
2022-08-17T19:25:47.971Z,32.38
2022-08-17T19:28:24.227Z,33.25
2022-08-17T19:30:56.611Z,33.01
2022-08-17T19:33:26.166Z,33.25
2022-08-17T19:36:03.868Z,32.91
2022-08-17T19:38:39.708Z,33.07
2022-08-17T19:45:09.883Z,33.75
2022-08-17T19:47:54.843Z,33.47
2022-08-17T19:50:30.992Z,33.35
2022-08-17T19:53:03.623Z,33.97
2022-08-17T19:55:44.215Z,34.02
2022-08-17T19:58:17.980Z,34.15
2022-08-17T20:00:51.506Z,34.18
2022-08-17T20:03:22.780Z,33.94
2022-08-17T20:06:11.993Z,33.93
2022-08-17T20:08:43.044Z,34.31
2022-08-17T20:11:13.359Z,34.32
2022-08-17T20:13:43.695Z,34.04
2022-08-17T20:16:15.761Z,34.53
2022-08-17T20:18:48.012Z,35.00
2022-08-17T20:21:20.100Z,34.64
2022-08-17T20:23:54.043Z,35.03
2022-08-17T20:26:26.833Z,34.65
2022-08-17T20:29:10.432Z,34.99
2022-08-17T20:31:45.970Z,35.30
2022-08-17T20:34:36.743Z,35.05
2022-08-17T20:37:12.484Z,34.98
2022-08-17T20:39:52.178Z,35.12
2022-08-17T20:45:48.544Z,35.47
2022-08-17T20:48:37.525Z,35.88
2022-08-17T20:51:27.549Z,35.91
2022-08-17T20:54:27.775Z,35.97
2022-08-17T20:56:58.205Z,36.21
2022-08-17T20:59:46.645Z,36.08
2022-08-17T21:02:22.024Z,36.25
2022-08-17T21:05:04.115Z,36.28
2022-08-17T21:21:16.898Z,37.04
2022-08-17T21:23:57.123Z,38.01
2022-08-17T21:26:30.801Z,37.25
2022-08-17T21:29:14.711Z,37.47
2022-08-17T21:32:19.011Z,37.38
2022-08-17T21:35:04.335Z,37.50
2022-08-17T21:37:42.977Z,37.37
2022-08-17T21:40:25.540Z,37.69
2022-08-17T21:42:56.932Z,37.52
2022-08-17T21:45:29.052Z,37.73
2022-08-17T21:48:12.994Z,37.94
2022-08-17T21:50:43.127Z,37.85
2022-08-17T21:53:27.003Z,37.95
2022-08-17T21:55:58.976Z,38.11
2022-08-17T21:58:31.819Z,37.92
2022-08-17T22:01:27.772Z,38.17
2022-08-17T22:03:59.189Z,38.23
2022-08-17T22:06:28.747Z,38.32
2022-08-17T22:09:08.689Z,38.43
2022-08-17T22:11:52.800Z,38.20
2022-08-17T22:14:23.590Z,38.85
2022-08-17T22:17:08.271Z,38.66
2022-08-17T22:19:37.243Z,39.13
2022-08-17T22:22:07.427Z,39.50
2022-08-17T22:24:37.408Z,39.05
2022-08-17T22:27:08.436Z,39.58
2022-08-17T22:29:47.734Z,39.74
2022-08-17T22:32:31.541Z,39.22
2022-08-17T22:35:19.058Z,39.59
2022-08-17T22:37:47.746Z,39.42
2022-08-17T22:40:28.361Z,39.89
2022-08-17T22:42:58.341Z,39.37
2022-08-17T22:45:28.765Z,39.54
2022-08-17T22:47:57.696Z,39.61
2022-08-17T22:50:27.090Z,39.67
2022-08-17T22:53:17.443Z,39.73
2022-08-17T22:56:12.933Z,40.02
2022-08-17T22:59:02.088Z,40.29
2022-08-17T23:01:33.391Z,40.30
2022-08-17T23:04:03.669Z,40.02
2022-08-17T23:06:33.937Z,40.80
2022-08-17T23:09:04.309Z,40.56
2022-08-17T23:11:57.033Z,40.31
2022-08-17T23:14:31.959Z,40.54
2022-08-17T23:17:01.167Z,40.84
2022-08-17T23:19:31.861Z,41.15
2022-08-17T23:22:01.828Z,41.05
2022-08-17T23:24:33.271Z,40.81
2022-08-17T23:27:08.321Z,40.80
2022-08-17T23:29:42.222Z,40.82
2022-08-17T23:32:12.472Z,40.78
2022-08-17T23:34:42.747Z,40.74
2022-08-17T23:37:12.536Z,40.82
2022-08-17T23:39:41.673Z,40.94
2022-08-17T23:42:11.978Z,40.94
2022-08-17T23:44:43.833Z,41.06
2022-08-17T23:47:12.617Z,41.14
2022-08-17T23:49:41.605Z,41.22
2022-08-17T23:52:13.010Z,41.29
2022-08-17T23:54:46.742Z,41.41
2022-08-17T23:57:16.582Z,41.33
2022-08-17T23:59:47.050Z,41.34
